sensor_id;sensor_type;location;lat;lon;timestamp;P1;durP1;ratioP1;P2;durP2;ratioP2
76210;SDS011;65003;49.518;11.280;2022-11-14T00:01:10;29.57;;;18.07;;
76210;SDS011;65003;49.518;11.280;2022-11-14T00:03:36;29.30;;;18.63;;
76210;SDS011;65003;49.518;11.280;2022-11-14T00:06:04;27.53;;;17.53;;
76210;SDS011;65003;49.518;11.280;2022-11-14T00:08:30;29.90;;;18.17;;
76210;SDS011;65003;49.518;11.280;2022-11-14T00:10:56;32.47;;;18.60;;
76210;SDS011;65003;49.518;11.280;2022-11-14T00:13:23;27.40;;;17.33;;
76210;SDS011;65003;49.518;11.280;2022-11-14T00:15:50;28.87;;;19.20;;
76210;SDS011;65003;49.518;11.280;2022-11-14T00:18:16;29.07;;;18.13;;
76210;SDS011;65003;49.518;11.280;2022-11-14T00:20:43;28.77;;;17.80;;
76210;SDS011;65003;49.518;11.280;2022-11-14T00:23:09;31.50;;;18.60;;
76210;SDS011;65003;49.518;11.280;2022-11-14T00:25:36;31.47;;;18.70;;
76210;SDS011;65003;49.518;11.280;2022-11-14T00:28:02;31.30;;;18.63;;
76210;SDS011;65003;49.518;11.280;2022-11-14T00:30:29;29.83;;;18.20;;
76210;SDS011;65003;49.518;11.280;2022-11-14T00:32:55;29.20;;;17.70;;
76210;SDS011;65003;49.518;11.280;2022-11-14T00:35:22;27.47;;;17.47;;
76210;SDS011;65003;49.518;11.280;2022-11-14T00:37:49;29.00;;;19.20;;
76210;SDS011;65003;49.518;11.280;2022-11-14T00:40:15;30.63;;;19.63;;
76210;SDS011;65003;49.518;11.280;2022-11-14T00:42:42;28.17;;;18.67;;
76210;SDS011;65003;49.518;11.280;2022-11-14T00:45:09;30.67;;;19.60;;
76210;SDS011;65003;49.518;11.280;2022-11-14T00:47:35;29.43;;;19.40;;
76210;SDS011;65003;49.518;11.280;2022-11-14T00:50:02;31.43;;;19.77;;
76210;SDS011;65003;49.518;11.280;2022-11-14T00:52:29;30.90;;;18.77;;
76210;SDS011;65003;49.518;11.280;2022-11-14T00:54:55;32.50;;;19.53;;
76210;SDS011;65003;49.518;11.280;2022-11-14T00:57:22;26.40;;;17.73;;
76210;SDS011;65003;49.518;11.280;2022-11-14T00:59:48;27.97;;;19.20;;
76210;SDS011;65003;49.518;11.280;2022-11-14T01:02:15;26.77;;;17.00;;
76210;SDS011;65003;49.518;11.280;2022-11-14T01:04:41;29.60;;;19.17;;
76210;SDS011;65003;49.518;11.280;2022-11-14T01:07:08;30.50;;;19.07;;
76210;SDS011;65003;49.518;11.280;2022-11-14T01:09:35;27.23;;;17.87;;
76210;SDS011;65003;49.518;11.280;2022-11-14T01:12:01;30.07;;;18.50;;
76210;SDS011;65003;49.518;11.280;2022-11-14T01:14:28;27.13;;;17.23;;
76210;SDS011;65003;49.518;11.280;2022-11-14T01:16:55;26.37;;;17.93;;
76210;SDS011;65003;49.518;11.280;2022-11-14T01:19:21;25.37;;;17.47;;
76210;SDS011;65003;49.518;11.280;2022-11-14T01:21:48;29.50;;;18.63;;
76210;SDS011;65003;49.518;11.280;2022-11-14T01:24:14;29.40;;;18.30;;
76210;SDS011;65003;49.518;11.280;2022-11-14T01:26:41;33.50;;;19.50;;
76210;SDS011;65003;49.518;11.280;2022-11-14T01:29:07;32.63;;;18.40;;
76210;SDS011;65003;49.518;11.280;2022-11-14T01:31:34;31.63;;;19.43;;
76210;SDS011;65003;49.518;11.280;2022-11-14T01:34:01;29.27;;;17.93;;
76210;SDS011;65003;49.518;11.280;2022-11-14T01:36:28;29.77;;;18.87;;
76210;SDS011;65003;49.518;11.280;2022-11-14T01:38:54;26.57;;;17.97;;
76210;SDS011;65003;49.518;11.280;2022-11-14T01:41:20;27.63;;;17.90;;
76210;SDS011;65003;49.518;11.280;2022-11-14T01:43:47;30.97;;;20.17;;
76210;SDS011;65003;49.518;11.280;2022-11-14T01:46:17;29.37;;;19.73;;
76210;SDS011;65003;49.518;11.280;2022-11-14T01:48:50;28.03;;;18.43;;
76210;SDS011;65003;49.518;11.280;2022-11-14T01:51:17;29.80;;;18.50;;
76210;SDS011;65003;49.518;11.280;2022-11-14T01:53:42;27.57;;;17.90;;
76210;SDS011;65003;49.518;11.280;2022-11-14T01:56:08;29.33;;;19.03;;
76210;SDS011;65003;49.518;11.280;2022-11-14T01:58:35;31.87;;;19.07;;
76210;SDS011;65003;49.518;11.280;2022-11-14T02:01:01;25.53;;;17.90;;
76210;SDS011;65003;49.518;11.280;2022-11-14T02:03:28;30.37;;;19.43;;
76210;SDS011;65003;49.518;11.280;2022-11-14T02:05:55;29.50;;;19.60;;
76210;SDS011;65003;49.518;11.280;2022-11-14T02:08:21;32.73;;;19.27;;
76210;SDS011;65003;49.518;11.280;2022-11-14T02:10:48;28.87;;;19.43;;
76210;SDS011;65003;49.518;11.280;2022-11-14T02:13:14;29.77;;;19.10;;
76210;SDS011;65003;49.518;11.280;2022-11-14T02:15:41;27.80;;;17.93;;
76210;SDS011;65003;49.518;11.280;2022-11-14T02:18:08;31.70;;;20.17;;
76210;SDS011;65003;49.518;11.280;2022-11-14T02:20:36;28.33;;;18.80;;
76210;SDS011;65003;49.518;11.280;2022-11-14T02:23:02;29.30;;;19.00;;
76210;SDS011;65003;49.518;11.280;2022-11-14T02:25:28;29.67;;;20.17;;
76210;SDS011;65003;49.518;11.280;2022-11-14T02:27:55;27.87;;;18.60;;
76210;SDS011;65003;49.518;11.280;2022-11-14T02:30:21;30.30;;;19.47;;
76210;SDS011;65003;49.518;11.280;2022-11-14T02:32:48;30.37;;;19.70;;
76210;SDS011;65003;49.518;11.280;2022-11-14T02:35:15;30.10;;;17.40;;
76210;SDS011;65003;49.518;11.280;2022-11-14T02:37:41;28.33;;;18.17;;
76210;SDS011;65003;49.518;11.280;2022-11-14T02:40:08;26.90;;;18.80;;
76210;SDS011;65003;49.518;11.280;2022-11-14T02:42:35;27.83;;;18.57;;
76210;SDS011;65003;49.518;11.280;2022-11-14T02:45:02;29.60;;;17.97;;
76210;SDS011;65003;49.518;11.280;2022-11-14T02:47:28;27.90;;;19.23;;
76210;SDS011;65003;49.518;11.280;2022-11-14T02:49:55;29.70;;;19.13;;
76210;SDS011;65003;49.518;11.280;2022-11-14T02:52:21;29.70;;;19.57;;
76210;SDS011;65003;49.518;11.280;2022-11-14T02:54:48;30.77;;;19.27;;
76210;SDS011;65003;49.518;11.280;2022-11-14T02:57:15;27.37;;;18.83;;
76210;SDS011;65003;49.518;11.280;2022-11-14T02:59:41;29.17;;;18.20;;
76210;SDS011;65003;49.518;11.280;2022-11-14T03:02:08;27.93;;;17.57;;
76210;SDS011;65003;49.518;11.280;2022-11-14T03:04:34;31.10;;;18.77;;
76210;SDS011;65003;49.518;11.280;2022-11-14T03:07:01;28.03;;;18.33;;
76210;SDS011;65003;49.518;11.280;2022-11-14T03:09:28;28.23;;;18.00;;
76210;SDS011;65003;49.518;11.280;2022-11-14T03:11:54;26.43;;;16.87;;
76210;SDS011;65003;49.518;11.280;2022-11-14T03:14:21;27.37;;;17.77;;
76210;SDS011;65003;49.518;11.280;2022-11-14T03:16:47;26.63;;;17.47;;
76210;SDS011;65003;49.518;11.280;2022-11-14T03:19:14;28.70;;;17.63;;
76210;SDS011;65003;49.518;11.280;2022-11-14T03:21:40;25.43;;;16.90;;
76210;SDS011;65003;49.518;11.280;2022-11-14T03:24:07;25.63;;;17.70;;
76210;SDS011;65003;49.518;11.280;2022-11-14T03:26:34;27.23;;;17.40;;
76210;SDS011;65003;49.518;11.280;2022-11-14T03:29:00;28.10;;;18.00;;
76210;SDS011;65003;49.518;11.280;2022-11-14T03:31:27;23.63;;;17.07;;
76210;SDS011;65003;49.518;11.280;2022-11-14T03:33:53;25.10;;;17.40;;
76210;SDS011;65003;49.518;11.280;2022-11-14T03:36:20;26.17;;;16.93;;
76210;SDS011;65003;49.518;11.280;2022-11-14T03:38:47;26.33;;;17.33;;
76210;SDS011;65003;49.518;11.280;2022-11-14T03:41:14;26.63;;;17.53;;
76210;SDS011;65003;49.518;11.280;2022-11-14T03:43:42;29.10;;;17.03;;
76210;SDS011;65003;49.518;11.280;2022-11-14T03:46:08;27.30;;;17.73;;
76210;SDS011;65003;49.518;11.280;2022-11-14T03:48:35;29.07;;;18.90;;
76210;SDS011;65003;49.518;11.280;2022-11-14T03:51:01;27.63;;;18.23;;
76210;SDS011;65003;49.518;11.280;2022-11-14T03:53:28;29.57;;;18.47;;
76210;SDS011;65003;49.518;11.280;2022-11-14T03:55:55;28.10;;;18.67;;
76210;SDS011;65003;49.518;11.280;2022-11-14T03:58:21;28.83;;;18.30;;
76210;SDS011;65003;49.518;11.280;2022-11-14T04:00:48;27.87;;;17.73;;
76210;SDS011;65003;49.518;11.280;2022-11-14T04:03:14;27.87;;;18.00;;
76210;SDS011;65003;49.518;11.280;2022-11-14T04:05:42;29.10;;;18.50;;
76210;SDS011;65003;49.518;11.280;2022-11-14T04:08:08;27.80;;;18.70;;
76210;SDS011;65003;49.518;11.280;2022-11-14T04:10:35;27.43;;;18.53;;
76210;SDS011;65003;49.518;11.280;2022-11-14T04:13:02;26.93;;;18.60;;
76210;SDS011;65003;49.518;11.280;2022-11-14T04:15:28;30.13;;;18.60;;
76210;SDS011;65003;49.518;11.280;2022-11-14T04:17:55;30.87;;;19.07;;
76210;SDS011;65003;49.518;11.280;2022-11-14T04:20:21;29.30;;;18.50;;
76210;SDS011;65003;49.518;11.280;2022-11-14T04:22:48;27.53;;;18.80;;
76210;SDS011;65003;49.518;11.280;2022-11-14T04:25:15;29.20;;;19.17;;
76210;SDS011;65003;49.518;11.280;2022-11-14T04:27:42;26.93;;;18.17;;
76210;SDS011;65003;49.518;11.280;2022-11-14T04:30:09;28.47;;;18.60;;
76210;SDS011;65003;49.518;11.280;2022-11-14T04:32:36;29.73;;;18.97;;
76210;SDS011;65003;49.518;11.280;2022-11-14T04:35:02;26.97;;;19.20;;
76210;SDS011;65003;49.518;11.280;2022-11-14T04:37:29;30.47;;;19.67;;
76210;SDS011;65003;49.518;11.280;2022-11-14T04:39:56;29.90;;;18.60;;
76210;SDS011;65003;49.518;11.280;2022-11-14T04:42:23;29.40;;;19.33;;
76210;SDS011;65003;49.518;11.280;2022-11-14T04:44:49;31.53;;;19.47;;
76210;SDS011;65003;49.518;11.280;2022-11-14T04:47:15;30.00;;;18.57;;
76210;SDS011;65003;49.518;11.280;2022-11-14T04:49:42;30.63;;;19.57;;
76210;SDS011;65003;49.518;11.280;2022-11-14T04:52:09;32.17;;;19.73;;
76210;SDS011;65003;49.518;11.280;2022-11-14T04:54:35;28.43;;;18.33;;
76210;SDS011;65003;49.518;11.280;2022-11-14T04:57:02;26.33;;;18.60;;
76210;SDS011;65003;49.518;11.280;2022-11-14T04:59:29;32.53;;;19.10;;
76210;SDS011;65003;49.518;11.280;2022-11-14T05:01:55;30.47;;;17.87;;
76210;SDS011;65003;49.518;11.280;2022-11-14T05:04:22;29.37;;;19.47;;
76210;SDS011;65003;49.518;11.280;2022-11-14T05:06:49;29.37;;;18.33;;
76210;SDS011;65003;49.518;11.280;2022-11-14T05:09:15;27.23;;;18.37;;
76210;SDS011;65003;49.518;11.280;2022-11-14T05:11:42;32.43;;;19.70;;
76210;SDS011;65003;49.518;11.280;2022-11-14T05:14:08;31.93;;;18.77;;
76210;SDS011;65003;49.518;11.280;2022-11-14T05:16:35;27.23;;;18.67;;
76210;SDS011;65003;49.518;11.280;2022-11-14T05:19:02;27.57;;;17.00;;
76210;SDS011;65003;49.518;11.280;2022-11-14T05:21:28;32.63;;;18.80;;
76210;SDS011;65003;49.518;11.280;2022-11-14T05:23:55;27.93;;;18.33;;
76210;SDS011;65003;49.518;11.280;2022-11-14T05:26:21;26.30;;;17.33;;
76210;SDS011;65003;49.518;11.280;2022-11-14T05:28:48;27.03;;;18.50;;
76210;SDS011;65003;49.518;11.280;2022-11-14T05:31:14;27.90;;;17.53;;
76210;SDS011;65003;49.518;11.280;2022-11-14T05:33:44;26.07;;;17.10;;
76210;SDS011;65003;49.518;11.280;2022-11-14T05:36:10;25.97;;;17.10;;
76210;SDS011;65003;49.518;11.280;2022-11-14T05:38:36;24.90;;;17.50;;
76210;SDS011;65003;49.518;11.280;2022-11-14T05:41:04;26.23;;;16.97;;
76210;SDS011;65003;49.518;11.280;2022-11-14T05:43:33;26.63;;;17.57;;
76210;SDS011;65003;49.518;11.280;2022-11-14T05:46:00;25.50;;;16.30;;
76210;SDS011;65003;49.518;11.280;2022-11-14T05:48:26;25.83;;;17.23;;
76210;SDS011;65003;49.518;11.280;2022-11-14T05:50:54;23.10;;;15.67;;
76210;SDS011;65003;49.518;11.280;2022-11-14T05:53:21;28.43;;;17.83;;
76210;SDS011;65003;49.518;11.280;2022-11-14T05:55:48;28.32;;;22.07;;
76210;SDS011;65003;49.518;11.280;2022-11-14T05:58:14;26.17;;;18.27;;
76210;SDS011;65003;49.518;11.280;2022-11-14T06:00:41;23.70;;;16.27;;
76210;SDS011;65003;49.518;11.280;2022-11-14T06:03:08;25.60;;;16.23;;
76210;SDS011;65003;49.518;11.280;2022-11-14T06:05:34;23.47;;;15.47;;
76210;SDS011;65003;49.518;11.280;2022-11-14T06:08:01;22.33;;;14.33;;
76210;SDS011;65003;49.518;11.280;2022-11-14T06:10:27;25.30;;;15.07;;
76210;SDS011;65003;49.518;11.280;2022-11-14T06:12:54;27.43;;;16.23;;
76210;SDS011;65003;49.518;11.280;2022-11-14T06:15:20;22.90;;;15.10;;
76210;SDS011;65003;49.518;11.280;2022-11-14T06:17:47;20.93;;;13.67;;
76210;SDS011;65003;49.518;11.280;2022-11-14T06:20:14;24.10;;;15.15;;
76210;SDS011;65003;49.518;11.280;2022-11-14T06:22:41;21.87;;;14.83;;
76210;SDS011;65003;49.518;11.280;2022-11-14T06:25:07;22.43;;;14.77;;
76210;SDS011;65003;49.518;11.280;2022-11-14T06:27:34;21.77;;;14.67;;
76210;SDS011;65003;49.518;11.280;2022-11-14T06:30:01;21.87;;;14.43;;
76210;SDS011;65003;49.518;11.280;2022-11-14T06:32:27;22.87;;;15.00;;
76210;SDS011;65003;49.518;11.280;2022-11-14T06:34:54;19.93;;;13.57;;
76210;SDS011;65003;49.518;11.280;2022-11-14T06:37:20;21.83;;;13.60;;
76210;SDS011;65003;49.518;11.280;2022-11-14T06:39:47;22.10;;;13.80;;
76210;SDS011;65003;49.518;11.280;2022-11-14T06:42:14;18.30;;;13.00;;
76210;SDS011;65003;49.518;11.280;2022-11-14T06:44:40;21.13;;;12.83;;
76210;SDS011;65003;49.518;11.280;2022-11-14T06:47:07;19.50;;;13.37;;
76210;SDS011;65003;49.518;11.280;2022-11-14T06:49:33;18.80;;;12.90;;
76210;SDS011;65003;49.518;11.280;2022-11-14T06:52:00;20.20;;;13.30;;
76210;SDS011;65003;49.518;11.280;2022-11-14T06:54:26;19.00;;;13.23;;
76210;SDS011;65003;49.518;11.280;2022-11-14T06:56:53;20.13;;;13.13;;
76210;SDS011;65003;49.518;11.280;2022-11-14T06:59:20;18.97;;;13.53;;
76210;SDS011;65003;49.518;11.280;2022-11-14T07:01:46;19.43;;;13.10;;
76210;SDS011;65003;49.518;11.280;2022-11-14T07:04:13;17.67;;;12.40;;
76210;SDS011;65003;49.518;11.280;2022-11-14T07:06:39;18.53;;;12.23;;
76210;SDS011;65003;49.518;11.280;2022-11-14T07:09:06;18.87;;;12.10;;
76210;SDS011;65003;49.518;11.280;2022-11-14T07:11:33;18.80;;;13.73;;
76210;SDS011;65003;49.518;11.280;2022-11-14T07:14:00;16.57;;;11.93;;
76210;SDS011;65003;49.518;11.280;2022-11-14T07:16:27;21.20;;;12.80;;
76210;SDS011;65003;49.518;11.280;2022-11-14T07:18:55;25.30;;;15.97;;
76210;SDS011;65003;49.518;11.280;2022-11-14T07:21:23;18.67;;;13.30;;
76210;SDS011;65003;49.518;11.280;2022-11-14T07:23:49;17.47;;;12.37;;
76210;SDS011;65003;49.518;11.280;2022-11-14T07:26:15;17.67;;;12.23;;
76210;SDS011;65003;49.518;11.280;2022-11-14T07:28:42;18.10;;;12.27;;
76210;SDS011;65003;49.518;11.280;2022-11-14T07:31:10;16.20;;;10.90;;
76210;SDS011;65003;49.518;11.280;2022-11-14T07:33:35;16.67;;;11.93;;
76210;SDS011;65003;49.518;11.280;2022-11-14T07:36:02;15.43;;;11.07;;
76210;SDS011;65003;49.518;11.280;2022-11-14T07:38:31;15.80;;;11.23;;
76210;SDS011;65003;49.518;11.280;2022-11-14T07:40:59;20.80;;;12.57;;
76210;SDS011;65003;49.518;11.280;2022-11-14T07:43:25;21.63;;;12.13;;
76210;SDS011;65003;49.518;11.280;2022-11-14T07:45:51;17.27;;;11.47;;
76210;SDS011;65003;49.518;11.280;2022-11-14T07:48:18;17.93;;;10.70;;
76210;SDS011;65003;49.518;11.280;2022-11-14T07:50:44;14.93;;;10.93;;
76210;SDS011;65003;49.518;11.280;2022-11-14T07:53:11;14.57;;;10.03;;
76210;SDS011;65003;49.518;11.280;2022-11-14T07:55:37;14.03;;;10.27;;
76210;SDS011;65003;49.518;11.280;2022-11-14T07:58:04;13.93;;;9.80;;
76210;SDS011;65003;49.518;11.280;2022-11-14T08:00:30;17.30;;;10.80;;
76210;SDS011;65003;49.518;11.280;2022-11-14T08:02:57;18.30;;;9.73;;
76210;SDS011;65003;49.518;11.280;2022-11-14T08:05:24;16.73;;;10.50;;
76210;SDS011;65003;49.518;11.280;2022-11-14T08:07:50;14.90;;;10.17;;
76210;SDS011;65003;49.518;11.280;2022-11-14T08:10:17;13.57;;;9.70;;
76210;SDS011;65003;49.518;11.280;2022-11-14T08:12:44;12.63;;;8.77;;
76210;SDS011;65003;49.518;11.280;2022-11-14T08:15:11;11.83;;;8.57;;
76210;SDS011;65003;49.518;11.280;2022-11-14T08:17:37;12.67;;;8.73;;
76210;SDS011;65003;49.518;11.280;2022-11-14T08:20:04;12.60;;;8.67;;
76210;SDS011;65003;49.518;11.280;2022-11-14T08:22:31;10.87;;;8.30;;
76210;SDS011;65003;49.518;11.280;2022-11-14T08:24:58;9.43;;;7.77;;
76210;SDS011;65003;49.518;11.280;2022-11-14T08:27:25;12.50;;;8.17;;
76210;SDS011;65003;49.518;11.280;2022-11-14T08:29:51;10.20;;;8.03;;
76210;SDS011;65003;49.518;11.280;2022-11-14T08:32:18;9.97;;;7.47;;
76210;SDS011;65003;49.518;11.280;2022-11-14T08:34:44;10.80;;;7.80;;
76210;SDS011;65003;49.518;11.280;2022-11-14T08:37:11;9.83;;;6.67;;
76210;SDS011;65003;49.518;11.280;2022-11-14T08:39:38;11.77;;;7.80;;
76210;SDS011;65003;49.518;11.280;2022-11-14T08:42:04;12.80;;;8.87;;
76210;SDS011;65003;49.518;11.280;2022-11-14T08:44:31;7.30;;;6.00;;
76210;SDS011;65003;49.518;11.280;2022-11-14T08:46:57;9.10;;;6.63;;
76210;SDS011;65003;49.518;11.280;2022-11-14T08:49:25;7.67;;;6.87;;
76210;SDS011;65003;49.518;11.280;2022-11-14T08:51:51;8.70;;;6.80;;
76210;SDS011;65003;49.518;11.280;2022-11-14T08:54:18;12.33;;;7.33;;
76210;SDS011;65003;49.518;11.280;2022-11-14T08:56:44;7.20;;;6.17;;
76210;SDS011;65003;49.518;11.280;2022-11-14T08:59:11;7.47;;;6.10;;
76210;SDS011;65003;49.518;11.280;2022-11-14T09:01:37;8.13;;;6.10;;
76210;SDS011;65003;49.518;11.280;2022-11-14T09:04:04;9.70;;;5.77;;
76210;SDS011;65003;49.518;11.280;2022-11-14T09:06:31;7.07;;;5.90;;
76210;SDS011;65003;49.518;11.280;2022-11-14T09:08:57;8.13;;;6.23;;
76210;SDS011;65003;49.518;11.280;2022-11-14T09:11:24;6.63;;;5.70;;
76210;SDS011;65003;49.518;11.280;2022-11-14T09:13:52;6.20;;;5.53;;
76210;SDS011;65003;49.518;11.280;2022-11-14T09:16:19;8.07;;;5.33;;
76210;SDS011;65003;49.518;11.280;2022-11-14T09:18:46;6.00;;;5.10;;
76210;SDS011;65003;49.518;11.280;2022-11-14T09:21:13;5.70;;;5.07;;
76210;SDS011;65003;49.518;11.280;2022-11-14T09:23:39;6.13;;;5.27;;
76210;SDS011;65003;49.518;11.280;2022-11-14T09:26:07;8.60;;;5.67;;
76210;SDS011;65003;49.518;11.280;2022-11-14T09:28:34;6.23;;;5.47;;
76210;SDS011;65003;49.518;11.280;2022-11-14T09:31:02;7.73;;;5.03;;
76210;SDS011;65003;49.518;11.280;2022-11-14T09:33:27;6.43;;;4.77;;
76210;SDS011;65003;49.518;11.280;2022-11-14T09:35:57;6.13;;;4.70;;
76210;SDS011;65003;49.518;11.280;2022-11-14T09:38:23;5.47;;;4.57;;
76210;SDS011;65003;49.518;11.280;2022-11-14T09:40:56;5.47;;;4.40;;
76210;SDS011;65003;49.518;11.280;2022-11-14T09:43:27;5.20;;;4.53;;
76210;SDS011;65003;49.518;11.280;2022-11-14T09:45:54;5.17;;;4.67;;
76210;SDS011;65003;49.518;11.280;2022-11-14T09:48:21;6.30;;;5.20;;
76210;SDS011;65003;49.518;11.280;2022-11-14T09:50:49;6.63;;;4.80;;
76210;SDS011;65003;49.518;11.280;2022-11-14T09:53:22;5.53;;;4.58;;
76210;SDS011;65003;49.518;11.280;2022-11-14T09:55:48;5.23;;;4.73;;
76210;SDS011;65003;49.518;11.280;2022-11-14T09:58:18;5.00;;;4.50;;
76210;SDS011;65003;49.518;11.280;2022-11-14T10:00:47;4.97;;;4.47;;
76210;SDS011;65003;49.518;11.280;2022-11-14T10:03:19;4.37;;;3.80;;
76210;SDS011;65003;49.518;11.280;2022-11-14T10:06:13;6.63;;;4.30;;
76210;SDS011;65003;49.518;11.280;2022-11-14T10:08:47;4.80;;;4.07;;
76210;SDS011;65003;49.518;11.280;2022-11-14T10:11:20;5.10;;;4.37;;
76210;SDS011;65003;49.518;11.280;2022-11-14T10:13:53;4.60;;;3.63;;
76210;SDS011;65003;49.518;11.280;2022-11-14T10:19:04;6.73;;;3.70;;
76210;SDS011;65003;49.518;11.280;2022-11-14T10:21:39;4.53;;;3.90;;
76210;SDS011;65003;49.518;11.280;2022-11-14T10:24:09;4.40;;;4.00;;
76210;SDS011;65003;49.518;11.280;2022-11-14T10:26:45;4.23;;;3.77;;
76210;SDS011;65003;49.518;11.280;2022-11-14T10:32:03;6.27;;;3.77;;
76210;SDS011;65003;49.518;11.280;2022-11-14T10:34:38;4.50;;;3.80;;
76210;SDS011;65003;49.518;11.280;2022-11-14T10:37:24;4.20;;;3.80;;
76210;SDS011;65003;49.518;11.280;2022-11-14T10:39:51;5.07;;;4.23;;
76210;SDS011;65003;49.518;11.280;2022-11-14T10:42:23;4.53;;;3.87;;
76210;SDS011;65003;49.518;11.280;2022-11-14T10:44:52;4.60;;;4.10;;
76210;SDS011;65003;49.518;11.280;2022-11-14T10:47:17;5.00;;;4.23;;
76210;SDS011;65003;49.518;11.280;2022-11-14T10:49:43;4.77;;;4.20;;
76210;SDS011;65003;49.518;11.280;2022-11-14T10:52:12;4.23;;;3.53;;
76210;SDS011;65003;49.518;11.280;2022-11-14T10:54:40;4.67;;;4.20;;
76210;SDS011;65003;49.518;11.280;2022-11-14T10:57:15;5.60;;;4.63;;
76210;SDS011;65003;49.518;11.280;2022-11-14T10:59:41;4.87;;;4.23;;
76210;SDS011;65003;49.518;11.280;2022-11-14T11:02:07;5.37;;;4.30;;
76210;SDS011;65003;49.518;11.280;2022-11-14T11:04:35;5.77;;;4.43;;
76210;SDS011;65003;49.518;11.280;2022-11-14T11:07:22;5.03;;;3.87;;
76210;SDS011;65003;49.518;11.280;2022-11-14T11:09:57;5.47;;;3.80;;
76210;SDS011;65003;49.518;11.280;2022-11-14T11:15:13;5.43;;;4.30;;
76210;SDS011;65003;49.518;11.280;2022-11-14T11:20:28;5.20;;;4.10;;
76210;SDS011;65003;49.518;11.280;2022-11-14T11:25:28;6.37;;;4.33;;
76210;SDS011;65003;49.518;11.280;2022-11-14T11:30:30;4.40;;;3.90;;
76210;SDS011;65003;49.518;11.280;2022-11-14T11:33:13;5.60;;;4.60;;
76210;SDS011;65003;49.518;11.280;2022-11-14T11:35:39;5.53;;;4.37;;
76210;SDS011;65003;49.518;11.280;2022-11-14T11:38:06;5.27;;;4.13;;
76210;SDS011;65003;49.518;11.280;2022-11-14T11:40:31;4.57;;;4.00;;
76210;SDS011;65003;49.518;11.280;2022-11-14T11:43:01;5.20;;;4.07;;
76210;SDS011;65003;49.518;11.280;2022-11-14T11:45:29;5.30;;;3.73;;
76210;SDS011;65003;49.518;11.280;2022-11-14T11:48:07;4.30;;;3.43;;
76210;SDS011;65003;49.518;11.280;2022-11-14T11:50:38;4.43;;;4.00;;
76210;SDS011;65003;49.518;11.280;2022-11-14T11:55:50;5.23;;;4.50;;
76210;SDS011;65003;49.518;11.280;2022-11-14T11:58:22;4.67;;;4.03;;
76210;SDS011;65003;49.518;11.280;2022-11-14T12:00:49;4.00;;;3.60;;
76210;SDS011;65003;49.518;11.280;2022-11-14T12:03:14;5.70;;;4.10;;
76210;SDS011;65003;49.518;11.280;2022-11-14T12:05:45;7.83;;;4.50;;
76210;SDS011;65003;49.518;11.280;2022-11-14T12:08:24;4.90;;;4.07;;
76210;SDS011;65003;49.518;11.280;2022-11-14T12:10:47;5.60;;;4.30;;
76210;SDS011;65003;49.518;11.280;2022-11-14T12:13:21;4.13;;;3.73;;
76210;SDS011;65003;49.518;11.280;2022-11-14T12:15:52;5.63;;;3.80;;
76210;SDS011;65003;49.518;11.280;2022-11-14T12:21:12;3.50;;;3.20;;
76210;SDS011;65003;49.518;11.280;2022-11-14T12:23:50;3.60;;;2.87;;
76210;SDS011;65003;49.518;11.280;2022-11-14T12:26:32;3.43;;;2.80;;
76210;SDS011;65003;49.518;11.280;2022-11-14T12:29:11;4.30;;;2.80;;
76210;SDS011;65003;49.518;11.280;2022-11-14T12:31:36;2.80;;;2.50;;
76210;SDS011;65003;49.518;11.280;2022-11-14T12:34:04;3.13;;;2.83;;
76210;SDS011;65003;49.518;11.280;2022-11-14T12:36:30;3.73;;;2.70;;
76210;SDS011;65003;49.518;11.280;2022-11-14T12:38:56;4.33;;;2.63;;
76210;SDS011;65003;49.518;11.280;2022-11-14T12:41:26;4.40;;;3.10;;
76210;SDS011;65003;49.518;11.280;2022-11-14T12:43:52;2.90;;;2.50;;
76210;SDS011;65003;49.518;11.280;2022-11-14T12:46:18;3.33;;;3.00;;
76210;SDS011;65003;49.518;11.280;2022-11-14T12:48:45;3.07;;;2.77;;
76210;SDS011;65003;49.518;11.280;2022-11-14T12:54:03;3.47;;;2.97;;
76210;SDS011;65003;49.518;11.280;2022-11-14T12:56:41;3.37;;;2.83;;
76210;SDS011;65003;49.518;11.280;2022-11-14T12:59:31;4.70;;;3.03;;
76210;SDS011;65003;49.518;11.280;2022-11-14T13:01:58;3.73;;;2.90;;
76210;SDS011;65003;49.518;11.280;2022-11-14T13:04:27;4.17;;;2.83;;
76210;SDS011;65003;49.518;11.280;2022-11-14T13:07:02;2.83;;;2.60;;
76210;SDS011;65003;49.518;11.280;2022-11-14T13:09:31;3.97;;;2.93;;
76210;SDS011;65003;49.518;11.280;2022-11-14T13:15:18;3.03;;;2.73;;
76210;SDS011;65003;49.518;11.280;2022-11-14T13:18:02;3.67;;;2.80;;
76210;SDS011;65003;49.518;11.280;2022-11-14T13:20:34;3.13;;;2.60;;
76210;SDS011;65003;49.518;11.280;2022-11-14T13:25:44;3.97;;;2.40;;
76210;SDS011;65003;49.518;11.280;2022-11-14T13:33:41;2.87;;;2.57;;
76210;SDS011;65003;49.518;11.280;2022-11-14T13:36:10;3.33;;;2.87;;
76210;SDS011;65003;49.518;11.280;2022-11-14T13:38:46;2.93;;;2.57;;
76210;SDS011;65003;49.518;11.280;2022-11-14T13:41:30;2.53;;;2.33;;
76210;SDS011;65003;49.518;11.280;2022-11-14T13:49:26;3.27;;;2.30;;
76210;SDS011;65003;49.518;11.280;2022-11-14T13:51:51;2.67;;;2.20;;
76210;SDS011;65003;49.518;11.280;2022-11-14T13:54:18;2.80;;;2.50;;
76210;SDS011;65003;49.518;11.280;2022-11-14T13:56:51;3.07;;;2.70;;
76210;SDS011;65003;49.518;11.280;2022-11-14T14:02:03;5.60;;;3.20;;
76210;SDS011;65003;49.518;11.280;2022-11-14T14:04:39;3.53;;;3.00;;
76210;SDS011;65003;49.518;11.280;2022-11-14T14:07:14;2.63;;;2.40;;
76210;SDS011;65003;49.518;11.280;2022-11-14T14:09:43;3.23;;;2.77;;
76210;SDS011;65003;49.518;11.280;2022-11-14T14:12:26;3.40;;;2.23;;
76210;SDS011;65003;49.518;11.280;2022-11-14T14:14:56;3.97;;;2.90;;
76210;SDS011;65003;49.518;11.280;2022-11-14T14:20:01;3.97;;;2.47;;
76210;SDS011;65003;49.518;11.280;2022-11-14T14:22:30;3.43;;;3.10;;
76210;SDS011;65003;49.518;11.280;2022-11-14T14:25:30;4.23;;;2.83;;
76210;SDS011;65003;49.518;11.280;2022-11-14T14:28:14;3.43;;;2.70;;
76210;SDS011;65003;49.518;11.280;2022-11-14T14:30:28;3.00;;;2.70;;
76210;SDS011;65003;49.518;11.280;2022-11-14T14:33:01;4.03;;;2.90;;
76210;SDS011;65003;49.518;11.280;2022-11-14T14:35:49;3.77;;;2.83;;
76210;SDS011;65003;49.518;11.280;2022-11-14T14:38:21;6.07;;;3.10;;
76210;SDS011;65003;49.518;11.280;2022-11-14T14:40:48;5.10;;;3.27;;
76210;SDS011;65003;49.518;11.280;2022-11-14T14:45:56;5.87;;;3.10;;
76210;SDS011;65003;49.518;11.280;2022-11-14T14:48:25;3.83;;;3.30;;
76210;SDS011;65003;49.518;11.280;2022-11-14T14:50:52;4.60;;;3.00;;
76210;SDS011;65003;49.518;11.280;2022-11-14T14:53:20;3.60;;;2.87;;
76210;SDS011;65003;49.518;11.280;2022-11-14T14:55:51;3.40;;;3.03;;
76210;SDS011;65003;49.518;11.280;2022-11-14T14:58:28;4.97;;;3.27;;
76210;SDS011;65003;49.518;11.280;2022-11-14T15:00:58;4.03;;;3.23;;
76210;SDS011;65003;49.518;11.280;2022-11-14T15:03:26;3.23;;;2.90;;
76210;SDS011;65003;49.518;11.280;2022-11-14T15:05:56;5.83;;;3.30;;
76210;SDS011;65003;49.518;11.280;2022-11-14T15:08:22;4.23;;;3.20;;
76210;SDS011;65003;49.518;11.280;2022-11-14T15:10:49;4.43;;;3.17;;
76210;SDS011;65003;49.518;11.280;2022-11-14T15:13:16;4.00;;;2.87;;